Sticklerstown, Pennsylvania
Current Conditions -  °F | °C
As of 11:17 PM on Monday 22 Dec 2014 (Local Time) from KLNS Reporting Station
Haze Haze  
Wind Chill: 33°   Ceiling: 600
Heat Index: 38°   Visibility: 3mi
Dew Point: 36°   Wind: 7mph
Humidity: 93%   Direction: 70°ENE
Pressure: 30.1"   Gusts: NA
Location:  40.3035°N, 76.254°W
Report Text: KLNS 230417Z AUTO 07006KT 3SM BR BKN006 OVC015 03/02 A3010 RMK AO2 CIG 004V009 T00330022
Loading
Personal Weather Stations






























Interactive Weather Map New forecast layout! Learn more

10-Day Weather Forecast

Advertisements
Track Severe Weather on mobile